logo
App data

I Expect You To Die

Test your problem-solving skills in this virtual reality escape-the-room puzzle game. Play as a secret agent armed with telekinetic abilities on a mission to stop Zoraxis, an evil corporation with plans for world domination.
Store | Hub | SteamDB | Site
Developer: Schell Games Publisher: Schell Games
Genre: Adventure
Languages: English, French, Italian, German, Spanish - Spain, Japanese, Korean, Simplified Chinese, Traditional Chinese
Tags: VR (151), Puzzle (144), Strategy (141), Action (137), Immersive (135), Simulation (126), Funny (122), Comedy (119), Retro (117), Adventure (116), Singleplayer (115), Cold War (111), First-Person (108), Stylized (104), Soundtrack (100), Indie (91), Short (88), Difficult (85), Open World (82), Hidden Object (80)
Category: Single-player, Steam Achievements, Steam Trading Cards
Release date: Apr 25, 2017
Price: $14.99 40%
Old userscore: 94% Metascore: 77%
Owners: 100,000 .. 200,000
Followers: 7,436
Peak concurrent players yesterday: 29
YouTube stats: 23,607 views and 78 comments for top 50 videos uploaded last week, 4 new videos uploaded yesterday.
Playtime total: 02:34 (average) 01:55 (median)

Steam Spy is still in beta, so expect major bugs.

Owners data:

Access restricted.

This feature is only available to users with special access rights. Sorry.

If you want to proceed, you need to register or log in first and then back Steam Spy on Patreon. Look for Indie or Pro pledge.

Don't forget to use the same email as on Steam Spy!

If you've recently backed Steam Spy on Patreon, please note, that it might take around 15 minutes for your access rights to sync. In most cases you'll need to re-login on Steam Spy too.

Audience in 2 weeks:

Access restricted.

This feature is only available to users with special access rights. Sorry.

If you want to proceed, you need to register or log in first and then back Steam Spy on Patreon. Look for Indie or Pro pledge.

Don't forget to use the same email as on Steam Spy!

If you've recently backed Steam Spy on Patreon, please note, that it might take around 15 minutes for your access rights to sync. In most cases you'll need to re-login on Steam Spy too.

Peak daily concurrent players:

CCU data courtesy of SteamDB. Used with permission.

Hourly concurrent players:

Daily Twitch stats:

Hourly Twitch stats:

Followers over time

Access restricted.

This feature is only available to users with special access rights. Sorry.

If you want to proceed, you need to register or log in first and then back Steam Spy on Patreon. Look for Indie or Pro pledge.

Don't forget to use the same email as on Steam Spy!

If you've recently backed Steam Spy on Patreon, please note, that it might take around 15 minutes for your access rights to sync. In most cases you'll need to re-login on Steam Spy too.

Views for top 50 videos on YouTube for this game:

Games similar to this one:

# Game Release date
Price
Score rank
(Userscore / Metascore)
Owners
Players
Playtime (Median)
1 Lift It Jan 20, 2017 $4.99N/A (N/A)50,000 .. 100,0000%00:00 (00:00)
2 Quell May 14, 2015 $0.79N/A (N/A)0 .. 20,0000%00:00 (00:00)
3 Streets of Chaos Jan 23, 2015 N/AN/A (N/A)100,000 .. 200,0000%00:00 (00:00)
4 GunWorld Nov 16, 2014 $1.99N/A (N/A)0 .. 20,0000%00:00 (00:00)
5 Avalanche 2: Super Avalanche Jun 11, 2015 $1.74N/A (N/A)50,000 .. 100,0000%00:00 (00:00)
6 Stephen's Sausage Roll Apr 18, 2016 $8.99N/A (N/A/90%)50,000 .. 100,0000%00:00 (00:00)
7 Pester Jan 25, 2013 $0.49N/A (N/A)100,000 .. 200,0000%00:00 (00:00)
8 The Reject Demon: Toko Chapter 0 — Prelude May 9, 2015 $4.99N/A (N/A)20,000 .. 50,0000%00:00 (00:00)
9 Farm Frenzy: Hurricane Season Apr 1, 2015 $0.69N/A (N/A)0 .. 20,0000%00:00 (00:00)
10 Botology Jun 24, 2015 $0.99N/A (N/A)50,000 .. 100,0000%00:00 (00:00)
11 Power of Love Jul 21, 2015 $0.49N/A (N/A)20,000 .. 50,0000%00:00 (00:00)
12 Fingered Aug 18, 2015 $0.93N/A (N/A)100,000 .. 200,0000%00:00 (00:00)
13 Painters Guild Sep 1, 2015 $1.99N/A (N/A)20,000 .. 50,0000%00:00 (00:00)
14 In Between Aug 21, 2015 $1.79N/A (N/A/68%)50,000 .. 100,0000%00:00 (00:00)
15 Robot vs Birds Zombies Jun 1, 2013 $0.99N/A (N/A)500,000 .. 1,000,0000%00:00 (00:00)
16 12 Labours of Hercules IV: Mother Nature (Platinum Edition) Dec 25, 2015 $1.49N/A (N/A)20,000 .. 50,0000%00:00 (00:00)
17 Pixel Puzzles 2: Birds Feb 20, 2015 $0.74N/A (N/A)100,000 .. 200,0000%00:00 (00:00)
18 Cibele Nov 2, 2015 $8.99N/A (N/A/71%)50,000 .. 100,0000%00:00 (00:00)
19 Narcissu 10th Anniversary Anthology Project Jan 27, 2016 $1.49N/A (N/A)50,000 .. 100,0000%00:00 (00:00)
20 A grande bagunça espacial - The big space mess Apr 5, 2016 $0.49N/A (N/A)200,000 .. 500,0000%00:00 (00:00)
21 Burst Mar 14, 2016 N/AN/A (N/A)20,000 .. 50,0000%00:00 (00:00)
22 Days of War: Definitive Edition Jan 30, 2020 $24.99N/A (N/A/60%)50,000 .. 100,0000%00:00 (00:00)
23 Richie's Plank Experience Dec 13, 2017 $14.99N/A (N/A)50,000 .. 100,0000%00:00 (00:00)
24 Cold Waters Jun 5, 2017 $19.99N/A (N/A)50,000 .. 100,0000%00:00 (00:00)
25 Machine Hunt May 15, 2017 $0.5N/A (N/A)50,000 .. 100,0000%00:00 (00:00)
26 Masky Dec 16, 2016 $0.49N/A (N/A)50,000 .. 100,0000%00:00 (00:00)
27 Brother Wings Jan 10, 2017 $0.99N/A (N/A)20,000 .. 50,0000%00:00 (00:00)
28 Winexy Jan 13, 2017 $0.49N/A (N/A)50,000 .. 100,0000%00:00 (00:00)
29 Dungeon Painter Studio Feb 26, 2017 $14.99N/A (N/A)50,000 .. 100,0000%00:00 (00:00)
30 The guard of dungeon Mar 7, 2017 $0.69N/A (N/A)20,000 .. 50,0000%00:00 (00:00)
31 Pixel Shopkeeper Jul 20, 2017 $6.99N/A (N/A)0 .. 20,0000%00:00 (00:00)
32 Spy Chameleon - RGB Agent Jun 11, 2014 $4.99N/A (N/A)20,000 .. 50,0000%00:00 (00:00)
33 Governor of Poker 2 - Premium Edition Oct 11, 2010 $7.99N/A (N/A)20,000 .. 50,0000%00:00 (00:00)
34 Blocks That Matter Aug 19, 2011 $2.49N/A (N/A/72%)200,000 .. 500,0000%00:00 (00:00)
35 Rigonauts Aug 7, 2012 $9.99N/A (N/A/60%)0 .. 20,0000%00:00 (00:00)
36 Divide By Sheep Jul 2, 2015 $1.64N/A (N/A/83%)2,000,000 .. 5,000,0000%00:00 (00:00)
37 Aqua Kitty - Milk Mine Defender Feb 3, 2014 $2.09N/A (N/A)20,000 .. 50,0000%00:00 (00:00)
38 Tribloos 2 Jan 12, 2013 $4.99N/A (N/A)100,000 .. 200,0000%00:00 (00:00)
39 On Rusty Trails Jun 13, 2016 $1.29N/A (N/A/77%)20,000 .. 50,0000%00:00 (00:00)
40 Strata May 29, 2014 $7.99N/A (N/A)20,000 .. 50,0000%00:00 (00:00)
41 Wildlife Park 3 May 12, 2014 $4.99N/A (N/A)100,000 .. 200,0000%00:00 (00:00)
42 Sokobond Jul 21, 2014 $2.99N/A (N/A/82%)20,000 .. 50,0000%00:00 (00:00)
43 Pressured Jul 18, 2014 $0.59N/A (N/A)200,000 .. 500,0000%00:00 (00:00)
44 Automation - The Car Company Tycoon Game Mar 12, 2015 $23.99N/A (N/A)200,000 .. 500,0000%00:00 (00:00)
45 Sweezy Gunner May 6, 2014 $1.99N/A (N/A)20,000 .. 50,0000%00:00 (00:00)
46 Swipecart May 8, 2014 $2.99N/A (N/A)50,000 .. 100,0000%00:00 (00:00)
47 Farm Frenzy 4 Aug 1, 2013 $0.69N/A (N/A)20,000 .. 50,00025%01:05 (00:21)
48 AaAaAA!!! - A Reckless Disregard for Gravity Sep 3, 2009 $9.99N/A (N/A/81%)100,000 .. 200,0000%00:00 (00:00)
49 The Blue Flamingo Nov 18, 2014 $1.24N/A (N/A/55%)100,000 .. 200,0000%00:00 (00:00)
50 Cyto Jul 10, 2014 $3.99N/A (N/A)20,000 .. 50,0000%00:00 (00:00)
51 Wildlife Park 2 - Horses Oct 12, 2007 $2.79N/A (N/A)0 .. 20,0000%00:00 (00:00)
52 Metrocide Oct 20, 2014 $12.99N/A (N/A/68%)50,000 .. 100,0000%00:00 (00:00)
53 Bloop Reloaded Feb 6, 2015 FreeN/A (N/A)100,000 .. 200,0000%00:00 (00:00)
54 A Good Snowman Is Hard To Build Feb 25, 2015 $2.99N/A (N/A)50,000 .. 100,0000%00:00 (00:00)
55 Laserlife Sep 22, 2015 $9.99N/A (N/A)20,000 .. 50,0000%00:00 (00:00)
56 Letter Quest: Grimm's Journey Nov 20, 2014 $1.59N/A (N/A/73%)100,000 .. 200,0000%00:00 (00:00)
57 Thief Town Sep 26, 2014 $3.99N/A (N/A)20,000 .. 50,0000%00:00 (00:00)
58 Shutshimi Aug 25, 2015 $2.49N/A (N/A)50,000 .. 100,0000%00:00 (00:00)
59 Marble Duel: Sphere-Matching Tactical Fantasy Nov 12, 2015 $2.24N/A (N/A)50,000 .. 100,0000%00:00 (00:00)
60 Castle Jan 7, 2015 $3.99N/A (N/A)50,000 .. 100,0000%00:00 (00:00)
61 Death Goat Jun 7, 2016 N/AN/A (N/A)50,000 .. 100,0000%00:00 (00:00)
62 Bob Was Hungry Aug 19, 2015 $0.99N/A (N/A)50,000 .. 100,0000%00:00 (00:00)

Tags over time:

Access restricted.

This feature is only available to users with special access rights. Sorry.

If you want to proceed, you need to register or log in first and then back Steam Spy on Patreon. Look for Indie or Pro pledge.

Don't forget to use the same email as on Steam Spy!

If you've recently backed Steam Spy on Patreon, please note, that it might take around 15 minutes for your access rights to sync. In most cases you'll need to re-login on Steam Spy too.

Owners of this game also own:

Access restricted.

This feature is only available to users with special access rights. Sorry.

If you want to proceed, you need to register or log in first and then back Steam Spy on Patreon. Look for Indie or Pro pledge.

Don't forget to use the same email as on Steam Spy!

If you've recently backed Steam Spy on Patreon, please note, that it might take around 15 minutes for your access rights to sync. In most cases you'll need to re-login on Steam Spy too.

Playtime distribution:

Access restricted.

This feature is only available to users with special access rights. Sorry.

If you want to proceed, you need to register or log in first and then back Steam Spy on Patreon. Look for Indie or Pro pledge.

Don't forget to use the same email as on Steam Spy!

If you've recently backed Steam Spy on Patreon, please note, that it might take around 15 minutes for your access rights to sync. In most cases you'll need to re-login on Steam Spy too.

Playtime (2 weeks):

Access restricted.

This feature is only available to users with special access rights. Sorry.

If you want to proceed, you need to register or log in first and then back Steam Spy on Patreon. Look for Indie or Pro pledge.

Don't forget to use the same email as on Steam Spy!

If you've recently backed Steam Spy on Patreon, please note, that it might take around 15 minutes for your access rights to sync. In most cases you'll need to re-login on Steam Spy too.

User reviews:

Login required.

Please register or log in to see this information.